Lewek Teal — V7ZE4 — position and weather

sailwx.info

Track history (hours):
 
Tides and Currents Weather Stations Pressure Air Temp Water Temp Dewpoint Dewpoint Depression Visibility Wind Speed Wind Dir Waves Ship Positions

Lewek Teal

Last reported at 2014-Jul-21 18:33 UTC. Time now 2014-Jul-30 17:15 UTC.
Position N 01°14' E 103°59'.
Warning: this ship's position is 8 days out of date.

Length 92 m; draft 6.4 m.

MMSI: 538004803.

Date/timePositionNaut miles runAvg speedWind from/ knotsBaromVisibWave heightAir tempDewpointWater temp
2014-Jul-21 18:33N 01°14' E 103°59'9 8.5
2014-Jul-21 17:27N 01°11' E 103°50'9 8.6
2014-Jul-21 16:25N 01°17' E 103°44'1 0.0
2014-Jul-21 00:10N 01°18' E 103°44'1 0.9
2014-Jul-20 23:33N 01°17' E 103°44'8 7.7
2014-Jul-20 22:27N 01°13' E 103°52'3 3.5
2014-Jul-20 21:32N 01°16' E 103°52'0 0.0
2014-Jul-20 20:32N 01°16' E 103°52'0 0.0
2014-Jul-20 19:32N 01°16' E 103°52'0 0.0
2014-Jul-20 18:32N 01°16' E 103°52'0 0.0
2014-Jul-20 17:32N 01°16' E 103°52'0 0.0
2014-Jul-20 16:32N 01°16' E 103°52'0 0.0
2014-Jul-20 15:29N 01°16' E 103°52'0 0.0
2014-Jul-20 14:32N 01°16' E 103°52'0 0.0
2014-Jul-20 13:32N 01°16' E 103°52'0 0.0
2014-Jul-20 12:32N 01°16' E 103°52'0 0.0
2014-Jul-20 11:29N 01°16' E 103°52'0 0.0
2014-Jul-20 10:32N 01°16' E 103°52'0 0.0
2014-Jul-20 09:32N 01°16' E 103°52'0 0.0
2014-Jul-20 08:32N 01°16' E 103°52'0 0.0
2014-Jul-20 07:32N 01°16' E 103°52'0 0.0
2014-Jul-20 06:32N 01°16' E 103°52'0 0.0
2014-Jul-20 05:32N 01°16' E 103°52'0 0.0
2014-Jul-20 04:32N 01°16' E 103°52'0 0.0
2014-Jul-20 03:32N 01°16' E 103°52'0 0.0
2014-Jul-20 02:29N 01°16' E 103°52'0 0.0
2014-Jul-20 01:32N 01°16' E 103°52'0 0.0
2014-Jul-20 00:32N 01°16' E 103°52'0 0.0
2014-Jul-19 23:32N 01°16' E 103°52'0 0.0
2014-Jul-19 22:32N 01°16' E 103°52'0 0.0
2014-Jul-19 21:32N 01°16' E 103°52'0 0.0
2014-Jul-19 20:32N 01°16' E 103°52'0 0.0
2014-Jul-19 19:29N 01°16' E 103°52'0 0.0
2014-Jul-19 18:32N 01°16' E 103°52'0 0.0
2014-Jul-19 17:32N 01°16' E 103°52'0 0.0
2014-Jul-19 16:29N 01°16' E 103°52'0 0.0
2014-Jul-19 15:32N 01°16' E 103°52'0 0.0
2014-Jul-19 14:28N 01°16' E 103°52'0 0.0
2014-Jul-19 13:31N 01°16' E 103°52'0 0.0
2014-Jul-19 12:31N 01°16' E 103°52'0 0.0
2014-Jul-19 11:31N 01°16' E 103°52'0 0.0
2014-Jul-19 10:31N 01°16' E 103°52'0 0.0
2014-Jul-19 09:31N 01°16' E 103°52'0 0.0
2014-Jul-19 08:31N 01°16' E 103°52'0 0.0
2014-Jul-19 07:31N 01°16' E 103°52'0 0.0
2014-Jul-19 06:31N 01°16' E 103°52'0 0.0
2014-Jul-19 05:28N 01°16' E 103°52'0 0.1
2014-Jul-19 04:31N 01°16' E 103°52'0 0.1
2014-Jul-19 03:31N 01°16' E 103°52'0 0.0
2014-Jul-19 02:31N 01°16' E 103°52'0 0.0
2014-Jul-19 01:31N 01°16' E 103°52'0 0.0
2014-Jul-19 00:31N 01°16' E 103°52'0 0.0
2014-Jul-18 23:31N 01°16' E 103°52'0 0.0
2014-Jul-18 22:28N 01°16' E 103°52'0 0.0
2014-Jul-18 21:31N 01°16' E 103°52'0 0.0
2014-Jul-18 20:31N 01°16' E 103°52'0 0.0
2014-Jul-18 19:31N 01°16' E 103°52'0 0.0
2014-Jul-18 18:31N 01°16' E 103°52'0 0.0
2014-Jul-18 17:31N 01°16' E 103°52'0 0.0
2014-Jul-18 16:31N 01°16' E 103°52'0 0.0
2014-Jul-18 15:31N 01°16' E 103°52'0 0.0
2014-Jul-18 14:31N 01°16' E 103°52'0 0.0
2014-Jul-18 13:31N 01°16' E 103°52'0 0.0
2014-Jul-18 12:31N 01°16' E 103°52'0 0.0
2014-Jul-18 11:31N 01°16' E 103°52'0 0.0
2014-Jul-18 10:31N 01°16' E 103°52'0 0.0
2014-Jul-18 09:31N 01°16' E 103°52'0 0.0
2014-Jul-18 08:31N 01°16' E 103°52'0 0.0
2014-Jul-18 07:31N 01°16' E 103°52'0 0.0
2014-Jul-18 06:31N 01°16' E 103°52'0 0.0
2014-Jul-18 05:31N 01°16' E 103°52'0 0.0
2014-Jul-18 04:31N 01°16' E 103°52'0 0.0
2014-Jul-18 03:31N 01°16' E 103°52'0 0.0
2014-Jul-18 02:31N 01°16' E 103°52'0 0.0
2014-Jul-18 01:31N 01°16' E 103°52'0 0.1
2014-Jul-18 00:31N 01°16' E 103°52'0 0.1
2014-Jul-17 23:31N 01°16' E 103°52'0 0.0
2014-Jul-17 22:31N 01°16' E 103°52'0 0.0
2014-Jul-17 21:31N 01°16' E 103°52'0 0.1
2014-Jul-17 20:31N 01°16' E 103°52'0 0.1
2014-Jul-17 19:31N 01°16' E 103°52'0 0.0
2014-Jul-17 18:28N 01°16' E 103°52'0 0.0
2014-Jul-17 17:28N 01°16' E 103°52'0 0.0
2014-Jul-17 16:31N 01°16' E 103°52'0 0.0
2014-Jul-17 15:31N 01°16' E 103°52'0 0.0
2014-Jul-17 14:31N 01°16' E 103°52'0 0.0
2014-Jul-17 13:28N 01°16' E 103°52'0 0.0
2014-Jul-17 12:31N 01°16' E 103°52'0 0.0
2014-Jul-17 11:31N 01°16' E 103°52'0 0.0
2014-Jul-17 10:31N 01°16' E 103°52'0 0.0
2014-Jul-17 09:28N 01°16' E 103°52'0 0.0
2014-Jul-17 08:31N 01°16' E 103°52'0 0.1
2014-Jul-17 07:28N 01°16' E 103°52'0 0.0
2014-Jul-17 06:31N 01°16' E 103°52'0 0.1
2014-Jul-17 05:31N 01°16' E 103°52'0 0.0
2014-Jul-17 04:31N 01°16' E 103°52'0 0.0
2014-Jul-17 03:31N 01°16' E 103°52'0 0.0
2014-Jul-17 02:31N 01°16' E 103°52'0 0.0
2014-Jul-17 01:28N 01°16' E 103°52'0 0.0
2014-Jul-17 00:31N 01°16' E 103°52'0 0.1
2014-Jul-16 23:31N 01°16' E 103°52'0 0.1
2014-Jul-16 22:31N 01°16' E 103°52'0 0.1
2014-Jul-16 21:31N 01°16' E 103°52'0 0.0
2014-Jul-16 20:31N 01°16' E 103°52'0 0.0
2014-Jul-16 19:31N 01°16' E 103°52'0 0.0
2014-Jul-16 18:28N 01°16' E 103°52'0 0.0
2014-Jul-16 17:28N 01°16' E 103°52'0 0.0
2014-Jul-16 16:31N 01°16' E 103°52'0 0.0
2014-Jul-16 15:31N 01°16' E 103°52'0 0.0
2014-Jul-16 14:31N 01°16' E 103°52'0 0.0
2014-Jul-16 13:31N 01°16' E 103°52'0 0.0
2014-Jul-16 12:28N 01°16' E 103°52'0 0.0
2014-Jul-16 11:28N 01°16' E 103°52'0 0.0
2014-Jul-16 10:31N 01°16' E 103°52'0 0.0
2014-Jul-16 09:31N 01°16' E 103°52'0 0.0
2014-Jul-16 08:31N 01°16' E 103°52'0 0.0
2014-Jul-16 07:31N 01°16' E 103°52'0 0.0
2014-Jul-16 06:34N 01°16' E 103°52'0 0.0
2014-Jul-16 05:34N 01°16' E 103°52'0 0.0
2014-Jul-16 04:34N 01°16' E 103°52'0 0.0
2014-Jul-16 03:31N 01°16' E 103°52'0 0.0
2014-Jul-16 02:31N 01°16' E 103°52'0 0.0
2014-Jul-16 01:34N 01°16' E 103°52'0 0.0
2014-Jul-16 00:30N 01°16' E 103°52'0 0.0
2014-Jul-15 23:34N 01°16' E 103°52'0 0.0
2014-Jul-15 22:33N 01°16' E 103°52'0 0.1
2014-Jul-15 21:33N 01°16' E 103°52'0 0.1
2014-Jul-15 20:33N 01°16' E 103°52'0 0.0
2014-Jul-15 19:34N 01°16' E 103°52'0 0.0
2014-Jul-15 18:33N 01°16' E 103°52'0 0.0
2014-Jul-15 17:34N 01°16' E 103°52'0 0.0
2014-Jul-15 16:30N 01°16' E 103°52'0 0.0
2014-Jul-15 15:33N 01°16' E 103°52'0 0.0
2014-Jul-15 14:31N 01°16' E 103°52'0 0.0
2014-Jul-15 13:33N 01°16' E 103°52'0 0.0
2014-Jul-15 12:34N 01°16' E 103°52'0 0.0
2014-Jul-15 11:33N 01°16' E 103°52'0 0.0
2014-Jul-15 10:30N 01°16' E 103°52'0 0.0
2014-Jul-15 09:34N 01°16' E 103°52'0 0.0
2014-Jul-15 08:32N 01°16' E 103°52'0 0.0
2014-Jul-15 07:32N 01°16' E 103°52'0 0.0
2014-Jul-15 06:26N 01°16' E 103°52'0 0.0
2014-Jul-15 05:32N 01°16' E 103°52'0 0.0
2014-Jul-15 04:32N 01°16' E 103°52'0 0.0
2014-Jul-15 03:29N 01°16' E 103°52'0 0.0
2014-Jul-15 02:32N 01°16' E 103°52'0 0.0
2014-Jul-15 01:32N 01°16' E 103°52'0 0.0
2014-Jul-15 00:32N 01°16' E 103°52'0 0.0
2014-Jul-14 23:32N 01°16' E 103°52'0 0.0
2014-Jul-14 22:32N 01°16' E 103°52'0 0.0
2014-Jul-14 21:32N 01°16' E 103°52'0 0.0
2014-Jul-14 20:32N 01°16' E 103°52'0 0.0
2014-Jul-14 19:32N 01°16' E 103°52'0 0.0
2014-Jul-14 18:32N 01°16' E 103°52'0 0.0
2014-Jul-14 17:26N 01°16' E 103°52'0 0.0
2014-Jul-14 16:32N 01°16' E 103°52'0 0.0
2014-Jul-14 15:32N 01°16' E 103°52'0 0.0
2014-Jul-14 14:32N 01°16' E 103°52'0 0.0
2014-Jul-14 13:32N 01°16' E 103°52'0 0.0
2014-Jul-14 12:32N 01°16' E 103°52'0 0.0
2014-Jul-14 11:32N 01°16' E 103°52'0 0.0
2014-Jul-14 10:32N 01°16' E 103°52'0 0.0
2014-Jul-14 09:32N 01°16' E 103°52'0 0.0
2014-Jul-14 08:32N 01°16' E 103°52'0 0.0
2014-Jul-14 07:32N 01°16' E 103°52'0 0.0
2014-Jul-14 06:29N 01°16' E 103°52'0 0.0
2014-Jul-14 05:29N 01°16' E 103°52'0 0.0
2014-Jul-14 04:32N 01°16' E 103°52'0 0.0
2014-Jul-12 02:29N 01°16' E 103°52'0 0.0
2014-Jul-12 01:14N 01°16' E 103°52'  
Track history (hours):
 
Tides and Currents Weather Stations Pressure Air Temp Water Temp Dewpoint Dewpoint Depression Visibility Wind Speed Wind Dir Waves Ship Positions

Lewek Teal

Last reported at 2014-Jul-21 18:33 UTC. Time now 2014-Jul-30 17:15 UTC.
Position N 01°14' E 103°59'.
Warning: this ship's position is 8 days out of date.

Length 92 m; draft 6.4 m.

MMSI: 538004803.

Date/timePositionNaut miles runAvg speedWind from/ knotsBaromVisibWave heightAir tempDewpointWater temp
2014-Jul-21 18:33N 01°14' E 103°59'9 8.5
2014-Jul-21 17:27N 01°11' E 103°50'9 8.6
2014-Jul-21 16:25N 01°17' E 103°44'1 0.0
2014-Jul-21 00:10N 01°18' E 103°44'1 0.9
2014-Jul-20 23:33N 01°17' E 103°44'8 7.7
2014-Jul-20 22:27N 01°13' E 103°52'3 3.5
2014-Jul-20 21:32N 01°16' E 103°52'0 0.0
2014-Jul-20 20:32N 01°16' E 103°52'0 0.0
2014-Jul-20 19:32N 01°16' E 103°52'0 0.0
2014-Jul-20 18:32N 01°16' E 103°52'0 0.0
2014-Jul-20 17:32N 01°16' E 103°52'0 0.0
2014-Jul-20 16:32N 01°16' E 103°52'0 0.0
2014-Jul-20 15:29N 01°16' E 103°52'0 0.0
2014-Jul-20 14:32N 01°16' E 103°52'0 0.0
2014-Jul-20 13:32N 01°16' E 103°52'0 0.0
2014-Jul-20 12:32N 01°16' E 103°52'0 0.0
2014-Jul-20 11:29N 01°16' E 103°52'0 0.0
2014-Jul-20 10:32N 01°16' E 103°52'0 0.0
2014-Jul-20 09:32N 01°16' E 103°52'0 0.0
2014-Jul-20 08:32N 01°16' E 103°52'0 0.0
2014-Jul-20 07:32N 01°16' E 103°52'0 0.0
2014-Jul-20 06:32N 01°16' E 103°52'0 0.0
2014-Jul-20 05:32N 01°16' E 103°52'0 0.0
2014-Jul-20 04:32N 01°16' E 103°52'0 0.0
2014-Jul-20 03:32N 01°16' E 103°52'0 0.0
2014-Jul-20 02:29N 01°16' E 103°52'0 0.0
2014-Jul-20 01:32N 01°16' E 103°52'0 0.0
2014-Jul-20 00:32N 01°16' E 103°52'0 0.0
2014-Jul-19 23:32N 01°16' E 103°52'0 0.0
2014-Jul-19 22:32N 01°16' E 103°52'0 0.0
2014-Jul-19 21:32N 01°16' E 103°52'0 0.0
2014-Jul-19 20:32N 01°16' E 103°52'0 0.0
2014-Jul-19 19:29N 01°16' E 103°52'0 0.0
2014-Jul-19 18:32N 01°16' E 103°52'0 0.0
2014-Jul-19 17:32N 01°16' E 103°52'0 0.0
2014-Jul-19 16:29N 01°16' E 103°52'0 0.0
2014-Jul-19 15:32N 01°16' E 103°52'0 0.0
2014-Jul-19 14:28N 01°16' E 103°52'0 0.0
2014-Jul-19 13:31N 01°16' E 103°52'0 0.0
2014-Jul-19 12:31N 01°16' E 103°52'0 0.0
2014-Jul-19 11:31N 01°16' E 103°52'0 0.0
2014-Jul-19 10:31N 01°16' E 103°52'0 0.0
2014-Jul-19 09:31N 01°16' E 103°52'0 0.0
2014-Jul-19 08:31N 01°16' E 103°52'0 0.0
2014-Jul-19 07:31N 01°16' E 103°52'0 0.0
2014-Jul-19 06:31N 01°16' E 103°52'0 0.0
2014-Jul-19 05:28N 01°16' E 103°52'0 0.1
2014-Jul-19 04:31N 01°16' E 103°52'0 0.1
2014-Jul-19 03:31N 01°16' E 103°52'0 0.0
2014-Jul-19 02:31N 01°16' E 103°52'0 0.0
2014-Jul-19 01:31N 01°16' E 103°52'0 0.0
2014-Jul-19 00:31N 01°16' E 103°52'0 0.0
2014-Jul-18 23:31N 01°16' E 103°52'0 0.0
2014-Jul-18 22:28N 01°16' E 103°52'0 0.0
2014-Jul-18 21:31N 01°16' E 103°52'0 0.0
2014-Jul-18 20:31N 01°16' E 103°52'0 0.0
2014-Jul-18 19:31N 01°16' E 103°52'0 0.0
2014-Jul-18 18:31N 01°16' E 103°52'0 0.0
2014-Jul-18 17:31N 01°16' E 103°52'0 0.0
2014-Jul-18 16:31N 01°16' E 103°52'0 0.0
2014-Jul-18 15:31N 01°16' E 103°52'0 0.0
2014-Jul-18 14:31N 01°16' E 103°52'0 0.0
2014-Jul-18 13:31N 01°16' E 103°52'0 0.0
2014-Jul-18 12:31N 01°16' E 103°52'0 0.0
2014-Jul-18 11:31N 01°16' E 103°52'0 0.0
2014-Jul-18 10:31N 01°16' E 103°52'0 0.0
2014-Jul-18 09:31N 01°16' E 103°52'0 0.0
2014-Jul-18 08:31N 01°16' E 103°52'0 0.0
2014-Jul-18 07:31N 01°16' E 103°52'0 0.0
2014-Jul-18 06:31N 01°16' E 103°52'0 0.0
2014-Jul-18 05:31N 01°16' E 103°52'0 0.0
2014-Jul-18 04:31N 01°16' E 103°52'0 0.0
2014-Jul-18 03:31N 01°16' E 103°52'0 0.0
2014-Jul-18 02:31N 01°16' E 103°52'0 0.0
2014-Jul-18 01:31N 01°16' E 103°52'0 0.1
2014-Jul-18 00:31N 01°16' E 103°52'0 0.1
2014-Jul-17 23:31N 01°16' E 103°52'0 0.0
2014-Jul-17 22:31N 01°16' E 103°52'0 0.0
2014-Jul-17 21:31N 01°16' E 103°52'0 0.1
2014-Jul-17 20:31N 01°16' E 103°52'0 0.1
2014-Jul-17 19:31N 01°16' E 103°52'0 0.0
2014-Jul-17 18:28N 01°16' E 103°52'0 0.0
2014-Jul-17 17:28N 01°16' E 103°52'0 0.0
2014-Jul-17 16:31N 01°16' E 103°52'0 0.0
2014-Jul-17 15:31N 01°16' E 103°52'0 0.0
2014-Jul-17 14:31N 01°16' E 103°52'0 0.0
2014-Jul-17 13:28N 01°16' E 103°52'0 0.0
2014-Jul-17 12:31N 01°16' E 103°52'0 0.0
2014-Jul-17 11:31N 01°16' E 103°52'0 0.0
2014-Jul-17 10:31N 01°16' E 103°52'0 0.0
2014-Jul-17 09:28N 01°16' E 103°52'0 0.0
2014-Jul-17 08:31N 01°16' E 103°52'0 0.1
2014-Jul-17 07:28N 01°16' E 103°52'0 0.0
2014-Jul-17 06:31N 01°16' E 103°52'0 0.1
2014-Jul-17 05:31N 01°16' E 103°52'0 0.0
2014-Jul-17 04:31N 01°16' E 103°52'0 0.0
2014-Jul-17 03:31N 01°16' E 103°52'0 0.0
2014-Jul-17 02:31N 01°16' E 103°52'0 0.0
2014-Jul-17 01:28N 01°16' E 103°52'0 0.0
2014-Jul-17 00:31N 01°16' E 103°52'0 0.1
2014-Jul-16 23:31N 01°16' E 103°52'0 0.1
2014-Jul-16 22:31N 01°16' E 103°52'0 0.1
2014-Jul-16 21:31N 01°16' E 103°52'0 0.0
2014-Jul-16 20:31N 01°16' E 103°52'0 0.0
2014-Jul-16 19:31N 01°16' E 103°52'0 0.0
2014-Jul-16 18:28N 01°16' E 103°52'0 0.0
2014-Jul-16 17:28N 01°16' E 103°52'0 0.0
2014-Jul-16 16:31N 01°16' E 103°52'0 0.0
2014-Jul-16 15:31N 01°16' E 103°52'0 0.0
2014-Jul-16 14:31N 01°16' E 103°52'0 0.0
2014-Jul-16 13:31N 01°16' E 103°52'0 0.0
2014-Jul-16 12:28N 01°16' E 103°52'0 0.0
2014-Jul-16 11:28N 01°16' E 103°52'0 0.0
2014-Jul-16 10:31N 01°16' E 103°52'0 0.0
2014-Jul-16 09:31N 01°16' E 103°52'0 0.0
2014-Jul-16 08:31N 01°16' E 103°52'0 0.0
2014-Jul-16 07:31N 01°16' E 103°52'0 0.0
2014-Jul-16 06:34N 01°16' E 103°52'0 0.0
2014-Jul-16 05:34N 01°16' E 103°52'0 0.0
2014-Jul-16 04:34N 01°16' E 103°52'0 0.0
2014-Jul-16 03:31N 01°16' E 103°52'0 0.0
2014-Jul-16 02:31N 01°16' E 103°52'0 0.0
2014-Jul-16 01:34N 01°16' E 103°52'0 0.0
2014-Jul-16 00:30N 01°16' E 103°52'0 0.0
2014-Jul-15 23:34N 01°16' E 103°52'0 0.0
2014-Jul-15 22:33N 01°16' E 103°52'0 0.1
2014-Jul-15 21:33N 01°16' E 103°52'0 0.1
2014-Jul-15 20:33N 01°16' E 103°52'0 0.0
2014-Jul-15 19:34N 01°16' E 103°52'0 0.0
2014-Jul-15 18:33N 01°16' E 103°52'0 0.0
2014-Jul-15 17:34N 01°16' E 103°52'0 0.0
2014-Jul-15 16:30N 01°16' E 103°52'0 0.0
2014-Jul-15 15:33N 01°16' E 103°52'0 0.0
2014-Jul-15 14:31N 01°16' E 103°52'0 0.0
2014-Jul-15 13:33N 01°16' E 103°52'0 0.0
2014-Jul-15 12:34N 01°16' E 103°52'0 0.0
2014-Jul-15 11:33N 01°16' E 103°52'0 0.0
2014-Jul-15 10:30N 01°16' E 103°52'0 0.0
2014-Jul-15 09:34N 01°16' E 103°52'0 0.0
2014-Jul-15 08:32N 01°16' E 103°52'0 0.0
2014-Jul-15 07:32N 01°16' E 103°52'0 0.0
2014-Jul-15 06:26N 01°16' E 103°52'0 0.0
2014-Jul-15 05:32N 01°16' E 103°52'0 0.0
2014-Jul-15 04:32N 01°16' E 103°52'0 0.0
2014-Jul-15 03:29N 01°16' E 103°52'0 0.0
2014-Jul-15 02:32N 01°16' E 103°52'0 0.0
2014-Jul-15 01:32N 01°16' E 103°52'0 0.0
2014-Jul-15 00:32N 01°16' E 103°52'0 0.0
2014-Jul-14 23:32N 01°16' E 103°52'0 0.0
2014-Jul-14 22:32N 01°16' E 103°52'0 0.0
2014-Jul-14 21:32N 01°16' E 103°52'0 0.0
2014-Jul-14 20:32N 01°16' E 103°52'0 0.0
2014-Jul-14 19:32N 01°16' E 103°52'0 0.0
2014-Jul-14 18:32N 01°16' E 103°52'0 0.0
2014-Jul-14 17:26N 01°16' E 103°52'0 0.0
2014-Jul-14 16:32N 01°16' E 103°52'0 0.0
2014-Jul-14 15:32N 01°16' E 103°52'0 0.0
2014-Jul-14 14:32N 01°16' E 103°52'0 0.0
2014-Jul-14 13:32N 01°16' E 103°52'0 0.0
2014-Jul-14 12:32N 01°16' E 103°52'0 0.0
2014-Jul-14 11:32N 01°16' E 103°52'0 0.0
2014-Jul-14 10:32N 01°16' E 103°52'0 0.0
2014-Jul-14 09:32N 01°16' E 103°52'0 0.0
2014-Jul-14 08:32N 01°16' E 103°52'0 0.0
2014-Jul-14 07:32N 01°16' E 103°52'0 0.0
2014-Jul-14 06:29N 01°16' E 103°52'0 0.0
2014-Jul-14 05:29N 01°16' E 103°52'0 0.0
2014-Jul-14 04:32N 01°16' E 103°52'0 0.0
2014-Jul-12 02:29N 01°16' E 103°52'0 0.0
2014-Jul-12 01:14N 01°16' E 103°52'  

Dump ship's entire track history